sensor_id;sensor_type;location;lat;lon;timestamp;pressure;altitude;pressure_sealevel;temperature;humidity
72061;BME280;59925;52.136;5.420;2023-11-21T00:01:04;101195.03;;;5.61;100.00
72061;BME280;59925;52.136;5.420;2023-11-21T00:03:31;101198.13;;;5.58;100.00
72061;BME280;59925;52.136;5.420;2023-11-21T00:05:58;101195.47;;;5.58;100.00
72061;BME280;59925;52.136;5.420;2023-11-21T00:08:24;101196.50;;;5.57;100.00
72061;BME280;59925;52.136;5.420;2023-11-21T00:10:51;101197.09;;;5.59;100.00
72061;BME280;59925;52.136;5.420;2023-11-21T00:13:18;101201.81;;;5.57;100.00
72061;BME280;59925;52.136;5.420;2023-11-21T00:15:44;101202.88;;;5.56;100.00
72061;BME280;59925;52.136;5.420;2023-11-21T00:18:11;101207.97;;;5.58;100.00
72061;BME280;59925;52.136;5.420;2023-11-21T00:20:38;101208.78;;;5.58;100.00
72061;BME280;59925;52.136;5.420;2023-11-21T00:23:04;101205.31;;;5.58;100.00
72061;BME280;59925;52.136;5.420;2023-11-21T00:25:31;101205.06;;;5.59;100.00
72061;BME280;59925;52.136;5.420;2023-11-21T00:27:58;101209.59;;;5.59;100.00
72061;BME280;59925;52.136;5.420;2023-11-21T00:30:25;101220.81;;;5.61;100.00
72061;BME280;59925;52.136;5.420;2023-11-21T00:32:51;101215.72;;;5.59;100.00
72061;BME280;59925;52.136;5.420;2023-11-21T00:35:18;101213.88;;;5.60;100.00
72061;BME280;59925;52.136;5.420;2023-11-21T00:37:44;101212.47;;;5.57;100.00
72061;BME280;59925;52.136;5.420;2023-11-21T00:40:12;101219.41;;;5.58;100.00
72061;BME280;59925;52.136;5.420;2023-11-21T00:42:38;101214.31;;;5.57;100.00
72061;BME280;59925;52.136;5.420;2023-11-21T00:45:06;101219.06;;;5.55;100.00
72061;BME280;59925;52.136;5.420;2023-11-21T00:47:33;101212.56;;;5.50;100.00
72061;BME280;59925;52.136;5.420;2023-11-21T00:50:00;101221.00;;;5.47;100.00
72061;BME280;59925;52.136;5.420;2023-11-21T00:52:26;101220.41;;;5.45;100.00
72061;BME280;59925;52.136;5.420;2023-11-21T00:54:53;101223.88;;;5.46;100.00
72061;BME280;59925;52.136;5.420;2023-11-21T00:57:20;101228.16;;;5.47;100.00
72061;BME280;59925;52.136;5.420;2023-11-21T00:59:46;101229.19;;;5.46;100.00
72061;BME280;59925;52.136;5.420;2023-11-21T01:02:13;101235.56;;;5.45;100.00
72061;BME280;59925;52.136;5.420;2023-11-21T01:04:39;101243.41;;;5.40;100.00
72061;BME280;59925;52.136;5.420;2023-11-21T01:07:06;101243.16;;;5.41;100.00
72061;BME280;59925;52.136;5.420;2023-11-21T01:09:33;101248.50;;;5.41;100.00
72061;BME280;59925;52.136;5.420;2023-11-21T01:12:00;101251.16;;;5.41;100.00
72061;BME280;59925;52.136;5.420;2023-11-21T01:14:27;101247.00;;;5.45;100.00
72061;BME280;59925;52.136;5.420;2023-11-21T01:16:54;101259.63;;;5.50;100.00
72061;BME280;59925;52.136;5.420;2023-11-21T01:19:20;101262.06;;;5.51;100.00
72061;BME280;59925;52.136;5.420;2023-11-21T01:21:47;101259.19;;;5.53;100.00
72061;BME280;59925;52.136;5.420;2023-11-21T01:24:14;101253.88;;;5.53;100.00
72061;BME280;59925;52.136;5.420;2023-11-21T01:26:40;101253.63;;;5.55;100.00
72061;BME280;59925;52.136;5.420;2023-11-21T01:29:07;101244.03;;;5.53;100.00
72061;BME280;59925;52.136;5.420;2023-11-21T01:31:33;101245.31;;;5.51;100.00
72061;BME280;59925;52.136;5.420;2023-11-21T01:34:00;101251.81;;;5.55;100.00
72061;BME280;59925;52.136;5.420;2023-11-21T01:36:31;101261.63;;;5.55;100.00
72061;BME280;59925;52.136;5.420;2023-11-21T01:39:00;101259.53;;;5.57;100.00
72061;BME280;59925;52.136;5.420;2023-11-21T01:41:27;101260.34;;;5.57;100.00
72061;BME280;59925;52.136;5.420;2023-11-21T01:43:57;101250.53;;;5.58;100.00
72061;BME280;59925;52.136;5.420;2023-11-21T01:46:23;101258.88;;;5.61;100.00
72061;BME280;59925;52.136;5.420;2023-11-21T01:48:51;101265.00;;;5.62;100.00
72061;BME280;59925;52.136;5.420;2023-11-21T01:51:19;101263.16;;;5.62;100.00
72061;BME280;59925;52.136;5.420;2023-11-21T01:53:46;101265.38;;;5.65;100.00
72061;BME280;59925;52.136;5.420;2023-11-21T01:56:13;101267.00;;;5.66;100.00
72061;BME280;59925;52.136;5.420;2023-11-21T01:58:40;101271.03;;;5.69;100.00
72061;BME280;59925;52.136;5.420;2023-11-21T02:01:08;101271.63;;;5.71;100.00
72061;BME280;59925;52.136;5.420;2023-11-21T02:03:36;101271.97;;;5.75;100.00
72061;BME280;59925;52.136;5.420;2023-11-21T02:06:03;101277.06;;;5.76;100.00
72061;BME280;59925;52.136;5.420;2023-11-21T02:08:29;101281.94;;;5.79;100.00
72061;BME280;59925;52.136;5.420;2023-11-21T02:10:56;101291.78;;;5.79;100.00
72061;BME280;59925;52.136;5.420;2023-11-21T02:13:24;101299.78;;;5.79;100.00
72061;BME280;59925;52.136;5.420;2023-11-21T02:15:50;101294.81;;;5.82;100.00
72061;BME280;59925;52.136;5.420;2023-11-21T02:18:18;101301.50;;;5.85;100.00
72061;BME280;59925;52.136;5.420;2023-11-21T02:20:45;101305.34;;;5.89;100.00
72061;BME280;59925;52.136;5.420;2023-11-21T02:23:13;101296.09;;;5.92;100.00
72061;BME280;59925;52.136;5.420;2023-11-21T02:25:41;101306.53;;;5.93;100.00
72061;BME280;59925;52.136;5.420;2023-11-21T02:28:09;101301.56;;;5.97;100.00
72061;BME280;59925;52.136;5.420;2023-11-21T02:30:39;101300.91;;;6.02;100.00
72061;BME280;59925;52.136;5.420;2023-11-21T02:33:06;101311.09;;;6.05;100.00
72061;BME280;59925;52.136;5.420;2023-11-21T02:35:33;101305.53;;;6.06;100.00
72061;BME280;59925;52.136;5.420;2023-11-21T02:38:01;101305.69;;;6.11;100.00
72061;BME280;59925;52.136;5.420;2023-11-21T02:40:29;101302.56;;;6.15;100.00
72061;BME280;59925;52.136;5.420;2023-11-21T02:42:56;101316.44;;;6.17;100.00
72061;BME280;59925;52.136;5.420;2023-11-21T02:45:25;101314.16;;;6.20;100.00
72061;BME280;59925;52.136;5.420;2023-11-21T02:47:52;101315.56;;;6.23;100.00
72061;BME280;59925;52.136;5.420;2023-11-21T02:50:23;101310.56;;;6.26;100.00
72061;BME280;59925;52.136;5.420;2023-11-21T02:52:50;101310.13;;;6.29;100.00
72061;BME280;59925;52.136;5.420;2023-11-21T02:55:17;101310.13;;;6.29;100.00
72061;BME280;59925;52.136;5.420;2023-11-21T02:57:44;101309.88;;;6.31;100.00
72061;BME280;59925;52.136;5.420;2023-11-21T03:00:11;101310.47;;;6.33;100.00
72061;BME280;59925;52.136;5.420;2023-11-21T03:02:40;101312.22;;;6.39;100.00
72061;BME280;59925;52.136;5.420;2023-11-21T03:05:07;101315.69;;;6.40;100.00
72061;BME280;59925;52.136;5.420;2023-11-21T03:07:37;101317.06;;;6.42;100.00
72061;BME280;59925;52.136;5.420;2023-11-21T03:10:06;101307.84;;;6.45;100.00
72061;BME280;59925;52.136;5.420;2023-11-21T03:12:32;101304.72;;;6.48;100.00
72061;BME280;59925;52.136;5.420;2023-11-21T03:14:59;101311.44;;;6.51;100.00
72061;BME280;59925;52.136;5.420;2023-11-21T03:17:26;101307.72;;;6.52;100.00
72061;BME280;59925;52.136;5.420;2023-11-21T03:19:52;101308.31;;;6.54;100.00
72061;BME280;59925;52.136;5.420;2023-11-21T03:22:19;101315.81;;;6.57;100.00
72061;BME280;59925;52.136;5.420;2023-11-21T03:24:46;101309.25;;;6.59;100.00
72061;BME280;59925;52.136;5.420;2023-11-21T03:27:12;101308.19;;;6.61;100.00
72061;BME280;59925;52.136;5.420;2023-11-21T03:29:39;101306.34;;;6.61;100.00
72061;BME280;59925;52.136;5.420;2023-11-21T03:32:06;101307.50;;;6.65;100.00
72061;BME280;59925;52.136;5.420;2023-11-21T03:34:33;101312.50;;;6.62;100.00
72061;BME280;59925;52.136;5.420;2023-11-21T03:37:00;101321.28;;;6.62;100.00
72061;BME280;59925;52.136;5.420;2023-11-21T03:39:26;101315.16;;;6.62;100.00
72061;BME280;59925;52.136;5.420;2023-11-21T03:41:53;101323.94;;;6.62;100.00
72061;BME280;59925;52.136;5.420;2023-11-21T03:44:20;101320.25;;;6.63;100.00
72061;BME280;59925;52.136;5.420;2023-11-21T03:46:46;101320.81;;;6.65;100.00
72061;BME280;59925;52.136;5.420;2023-11-21T03:49:13;101324.88;;;6.68;100.00
72061;BME280;59925;52.136;5.420;2023-11-21T03:51:39;101331.81;;;6.69;100.00
72061;BME280;59925;52.136;5.420;2023-11-21T03:54:06;101328.91;;;6.70;100.00
72061;BME280;59925;52.136;5.420;2023-11-21T03:56:34;101337.94;;;6.69;100.00
72061;BME280;59925;52.136;5.420;2023-11-21T03:59:00;101342.25;;;6.70;100.00
72061;BME280;59925;52.136;5.420;2023-11-21T04:01:27;101347.34;;;6.72;100.00
72061;BME280;59925;52.136;5.420;2023-11-21T04:03:53;101352.19;;;6.75;100.00
72061;BME280;59925;52.136;5.420;2023-11-21T04:06:20;101347.25;;;6.79;100.00
72061;BME280;59925;52.136;5.420;2023-11-21T04:08:46;101352.09;;;6.82;100.00
72061;BME280;59925;52.136;5.420;2023-11-21T04:11:13;101355.34;;;6.84;100.00
72061;BME280;59925;52.136;5.420;2023-11-21T04:13:40;101358.84;;;6.84;100.00
72061;BME280;59925;52.136;5.420;2023-11-21T04:16:08;101360.22;;;6.87;100.00
72061;BME280;59925;52.136;5.420;2023-11-21T04:18:38;101361.25;;;6.86;100.00
72061;BME280;59925;52.136;5.420;2023-11-21T04:21:05;101361.84;;;6.88;100.00
72061;BME280;59925;52.136;5.420;2023-11-21T04:23:32;101366.94;;;6.89;100.00
72061;BME280;59925;52.136;5.420;2023-11-21T04:25:59;101373.66;;;6.92;100.00
72061;BME280;59925;52.136;5.420;2023-11-21T04:28:26;101376.34;;;6.92;100.00
72061;BME280;59925;52.136;5.420;2023-11-21T04:30:52;101375.28;;;6.93;100.00
72061;BME280;59925;52.136;5.420;2023-11-21T04:33:19;101378.75;;;6.94;100.00
72061;BME280;59925;52.136;5.420;2023-11-21T04:35:46;101385.97;;;6.93;100.00
72061;BME280;59925;52.136;5.420;2023-11-21T04:38:12;101386.75;;;6.94;100.00
72061;BME280;59925;52.136;5.420;2023-11-21T04:40:39;101391.63;;;6.97;100.00
72061;BME280;59925;52.136;5.420;2023-11-21T04:43:06;101401.25;;;6.98;100.00
72061;BME280;59925;52.136;5.420;2023-11-21T04:45:32;101400.22;;;6.99;100.00
72061;BME280;59925;52.136;5.420;2023-11-21T04:47:59;101399.50;;;7.03;100.00
72061;BME280;59925;52.136;5.420;2023-11-21T04:50:25;101413.44;;;7.05;100.00
72061;BME280;59925;52.136;5.420;2023-11-21T04:52:55;101406.03;;;7.08;100.00
72061;BME280;59925;52.136;5.420;2023-11-21T04:55:21;101398.81;;;7.08;100.00
72061;BME280;59925;52.136;5.420;2023-11-21T04:57:48;101395.34;;;7.08;100.00
72061;BME280;59925;52.136;5.420;2023-11-21T05:00:15;101403.91;;;7.10;100.00
72061;BME280;59925;52.136;5.420;2023-11-21T05:02:42;101396.28;;;7.13;100.00
72061;BME280;59925;52.136;5.420;2023-11-21T05:05:10;101406.13;;;7.13;100.00
72061;BME280;59925;52.136;5.420;2023-11-21T05:07:39;101408.56;;;7.14;100.00
72061;BME280;59925;52.136;5.420;2023-11-21T05:10:06;101403.78;;;7.16;100.00
72061;BME280;59925;52.136;5.420;2023-11-21T05:12:35;101419.56;;;7.18;100.00
72061;BME280;59925;52.136;5.420;2023-11-21T05:15:04;101418.28;;;7.20;100.00
72061;BME280;59925;52.136;5.420;2023-11-21T05:17:34;101414.81;;;7.20;100.00
72061;BME280;59925;52.136;5.420;2023-11-21T05:20:01;101428.72;;;7.22;100.00
72061;BME280;59925;52.136;5.420;2023-11-21T05:22:34;101430.34;;;7.23;100.00
72061;BME280;59925;52.136;5.420;2023-11-21T05:25:02;101431.75;;;7.26;100.00
72061;BME280;59925;52.136;5.420;2023-11-21T05:27:30;101428.59;;;7.29;100.00
72061;BME280;59925;52.136;5.420;2023-11-21T05:30:04;101432.09;;;7.29;100.00
72061;BME280;59925;52.136;5.420;2023-11-21T05:32:32;101429.75;;;7.33;100.00
72061;BME280;59925;52.136;5.420;2023-11-21T05:34:59;101435.09;;;7.33;100.00
72061;BME280;59925;52.136;5.420;2023-11-21T05:37:26;101442.31;;;7.32;100.00
72061;BME280;59925;52.136;5.420;2023-11-21T05:39:53;101439.97;;;7.36;100.00
72061;BME280;59925;52.136;5.420;2023-11-21T05:42:23;101441.16;;;7.40;100.00
72061;BME280;59925;52.136;5.420;2023-11-21T05:44:49;101449.94;;;7.41;100.00
72061;BME280;59925;52.136;5.420;2023-11-21T05:47:16;101450.75;;;7.41;100.00
72061;BME280;59925;52.136;5.420;2023-11-21T05:49:44;101452.16;;;7.44;100.00
72061;BME280;59925;52.136;5.420;2023-11-21T05:52:12;101453.78;;;7.45;100.00
72061;BME280;59925;52.136;5.420;2023-11-21T05:54:38;101457.03;;;7.47;100.00
72061;BME280;59925;52.136;5.420;2023-11-21T05:57:05;101460.75;;;7.46;100.00
72061;BME280;59925;52.136;5.420;2023-11-21T05:59:31;101460.25;;;7.49;100.00
72061;BME280;59925;52.136;5.420;2023-11-21T06:01:58;101462.72;;;7.50;100.00
72061;BME280;59925;52.136;5.420;2023-11-21T06:04:25;101468.63;;;7.53;100.00
72061;BME280;59925;52.136;5.420;2023-11-21T06:06:52;101470.25;;;7.54;100.00
72061;BME280;59925;52.136;5.420;2023-11-21T06:09:21;101472.69;;;7.55;100.00
72061;BME280;59925;52.136;5.420;2023-11-21T06:11:48;101484.16;;;7.56;100.00
72061;BME280;59925;52.136;5.420;2023-11-21T06:14:15;101474.50;;;7.55;100.00
72061;BME280;59925;52.136;5.420;2023-11-21T06:16:44;101491.09;;;7.57;100.00
72061;BME280;59925;52.136;5.420;2023-11-21T06:19:11;101483.09;;;7.57;100.00
72061;BME280;59925;52.136;5.420;2023-11-21T06:21:38;101482.88;;;7.58;100.00
72061;BME280;59925;52.136;5.420;2023-11-21T06:24:05;101504.00;;;7.60;100.00
72061;BME280;59925;52.136;5.420;2023-11-21T06:26:32;101491.00;;;7.63;100.00
72061;BME280;59925;52.136;5.420;2023-11-21T06:28:58;101497.75;;;7.66;100.00
72061;BME280;59925;52.136;5.420;2023-11-21T06:31:25;101493.19;;;7.66;100.00
72061;BME280;59925;52.136;5.420;2023-11-21T06:33:51;101504.22;;;7.70;100.00
72061;BME280;59925;52.136;5.420;2023-11-21T06:36:19;101503.75;;;7.73;100.00
72061;BME280;59925;52.136;5.420;2023-11-21T06:38:45;101503.50;;;7.75;100.00
72061;BME280;59925;52.136;5.420;2023-11-21T06:41:12;101503.03;;;7.78;100.00
72061;BME280;59925;52.136;5.420;2023-11-21T06:43:42;101506.06;;;7.81;100.00
72061;BME280;59925;52.136;5.420;2023-11-21T06:46:13;101506.41;;;7.85;100.00
72061;BME280;59925;52.136;5.420;2023-11-21T06:48:43;101514.75;;;7.89;100.00
72061;BME280;59925;52.136;5.420;2023-11-21T06:51:09;101519.66;;;7.92;100.00
72061;BME280;59925;52.136;5.420;2023-11-21T06:53:37;101521.03;;;7.94;100.00
72061;BME280;59925;52.136;5.420;2023-11-21T06:56:05;101521.94;;;8.00;100.00
72061;BME280;59925;52.136;5.420;2023-11-21T06:58:41;101527.88;;;8.02;100.00
72061;BME280;59925;52.136;5.420;2023-11-21T07:01:07;101526.81;;;8.03;100.00
72061;BME280;59925;52.136;5.420;2023-11-21T07:03:34;101533.28;;;8.07;100.00
72061;BME280;59925;52.136;5.420;2023-11-21T07:06:01;101533.88;;;8.09;100.00
72061;BME280;59925;52.136;5.420;2023-11-21T07:08:28;101543.28;;;8.12;100.00
72061;BME280;59925;52.136;5.420;2023-11-21T07:10:54;101544.66;;;8.15;100.00
72061;BME280;59925;52.136;5.420;2023-11-21T07:13:21;101544.44;;;8.16;100.00
72061;BME280;59925;52.136;5.420;2023-11-21T07:15:48;101551.63;;;8.16;100.00
72061;BME280;59925;52.136;5.420;2023-11-21T07:18:18;101555.47;;;8.20;100.00
72061;BME280;59925;52.136;5.420;2023-11-21T07:20:45;101564.03;;;8.22;100.00
72061;BME280;59925;52.136;5.420;2023-11-21T07:23:11;101564.63;;;8.24;100.00
72061;BME280;59925;52.136;5.420;2023-11-21T07:25:38;101570.28;;;8.27;100.00
72061;BME280;59925;52.136;5.420;2023-11-21T07:28:05;101569.25;;;8.28;100.00
72061;BME280;59925;52.136;5.420;2023-11-21T07:30:31;101574.13;;;8.32;100.00
72061;BME280;59925;52.136;5.420;2023-11-21T07:32:58;101578.19;;;8.34;100.00
72061;BME280;59925;52.136;5.420;2023-11-21T07:35:25;101574.47;;;8.35;100.00
72061;BME280;59925;52.136;5.420;2023-11-21T07:37:52;101576.66;;;8.38;100.00
72061;BME280;59925;52.136;5.420;2023-11-21T07:40:19;101574.56;;;8.40;100.00
72061;BME280;59925;52.136;5.420;2023-11-21T07:42:46;101576.44;;;8.40;100.00
72061;BME280;59925;52.136;5.420;2023-11-21T07:45:12;101576.78;;;8.43;100.00
72061;BME280;59925;52.136;5.420;2023-11-21T07:47:39;101585.38;;;8.46;100.00
72061;BME280;59925;52.136;5.420;2023-11-21T07:50:06;101588.28;;;8.44;100.00
72061;BME280;59925;52.136;5.420;2023-11-21T07:52:34;101600.16;;;8.48;100.00
72061;BME280;59925;52.136;5.420;2023-11-21T07:55:01;101606.06;;;8.50;100.00
72061;BME280;59925;52.136;5.420;2023-11-21T07:57:28;101601.06;;;8.54;100.00
72061;BME280;59925;52.136;5.420;2023-11-21T07:59:57;101610.25;;;8.58;100.00
72061;BME280;59925;52.136;5.420;2023-11-21T08:02:23;101614.28;;;8.61;100.00
72061;BME280;59925;52.136;5.420;2023-11-21T08:04:50;101623.22;;;8.66;100.00
72061;BME280;59925;52.136;5.420;2023-11-21T08:07:17;101628.69;;;8.71;100.00
72061;BME280;59925;52.136;5.420;2023-11-21T08:09:44;101631.69;;;8.75;100.00
72061;BME280;59925;52.136;5.420;2023-11-21T08:12:10;101637.13;;;8.80;100.00
72061;BME280;59925;52.136;5.420;2023-11-21T08:14:37;101639.31;;;8.83;100.00
72061;BME280;59925;52.136;5.420;2023-11-21T08:17:05;101643.94;;;8.88;100.00
72061;BME280;59925;52.136;5.420;2023-11-21T08:19:33;101655.22;;;8.90;100.00
72061;BME280;59925;52.136;5.420;2023-11-21T08:21:59;101660.09;;;8.93;100.00
72061;BME280;59925;52.136;5.420;2023-11-21T08:24:26;101665.78;;;8.97;100.00
72061;BME280;59925;52.136;5.420;2023-11-21T08:26:53;101664.53;;;8.99;100.00
72061;BME280;59925;52.136;5.420;2023-11-21T08:29:20;101668.91;;;9.05;100.00
72061;BME280;59925;52.136;5.420;2023-11-21T08:31:48;101672.41;;;9.06;100.00
72061;BME280;59925;52.136;5.420;2023-11-21T08:34:14;101678.31;;;9.08;100.00
72061;BME280;59925;52.136;5.420;2023-11-21T08:36:42;101679.13;;;9.09;100.00
72061;BME280;59925;52.136;5.420;2023-11-21T08:39:09;101691.44;;;9.10;100.00
72061;BME280;59925;52.136;5.420;2023-11-21T08:41:36;101697.59;;;9.10;100.00
72061;BME280;59925;52.136;5.420;2023-11-21T08:44:05;101706.22;;;9.12;100.00
72061;BME280;59925;52.136;5.420;2023-11-21T08:46:33;101704.91;;;9.15;100.00
72061;BME280;59925;52.136;5.420;2023-11-21T08:49:03;101706.31;;;9.17;100.00
72061;BME280;59925;52.136;5.420;2023-11-21T08:51:30;101715.47;;;9.22;100.00
72061;BME280;59925;52.136;5.420;2023-11-21T08:53:57;101710.47;;;9.25;100.00
72061;BME280;59925;52.136;5.420;2023-11-21T08:56:26;101717.47;;;9.26;100.00
72061;BME280;59925;52.136;5.420;2023-11-21T08:58:53;101714.78;;;9.26;100.00
72061;BME280;59925;52.136;5.420;2023-11-21T09:01:19;101704.16;;;9.31;100.00
72061;BME280;59925;52.136;5.420;2023-11-21T09:03:47;101714.25;;;9.41;100.00
72061;BME280;59925;52.136;5.420;2023-11-21T09:06:14;101726.75;;;9.53;100.00
72061;BME280;59925;52.136;5.420;2023-11-21T09:08:40;101724.81;;;9.65;100.00
72061;BME280;59925;52.136;5.420;2023-11-21T09:11:08;101737.59;;;9.75;100.00
72061;BME280;59925;52.136;5.420;2023-11-21T09:13:35;101745.47;;;9.81;100.00
72061;BME280;59925;52.136;5.420;2023-11-21T09:16:02;101746.84;;;9.84;100.00
72061;BME280;59925;52.136;5.420;2023-11-21T09:18:29;101753.25;;;9.83;100.00
72061;BME280;59925;52.136;5.420;2023-11-21T09:20:57;101747.56;;;9.79;100.00
72061;BME280;59925;52.136;5.420;2023-11-21T09:23:24;101754.22;;;9.77;100.00
72061;BME280;59925;52.136;5.420;2023-11-21T09:25:51;101755.03;;;9.77;100.00
72061;BME280;59925;52.136;5.420;2023-11-21T09:28:18;101769.47;;;9.76;100.00
72061;BME280;59925;52.136;5.420;2023-11-21T09:30:44;101767.84;;;9.75;100.00
72061;BME280;59925;52.136;5.420;2023-11-21T09:33:11;101772.88;;;9.72;100.00
72061;BME280;59925;52.136;5.420;2023-11-21T09:35:38;101781.16;;;9.70;100.00
72061;BME280;59925;52.136;5.420;2023-11-21T09:38:05;101786.97;;;9.67;100.00
72061;BME280;59925;52.136;5.420;2023-11-21T09:40:37;101796.66;;;9.68;100.00
72061;BME280;59925;52.136;5.420;2023-11-21T09:43:06;101794.44;;;9.65;100.00
72061;BME280;59925;52.136;5.420;2023-11-21T09:45:38;101797.84;;;9.60;100.00
72061;BME280;59925;52.136;5.420;2023-11-21T09:48:07;101805.53;;;9.57;100.00
72061;BME280;59925;52.136;5.420;2023-11-21T09:50:35;101804.13;;;9.54;100.00
72061;BME280;59925;52.136;5.420;2023-11-21T09:55:47;101818.00;;;9.51;100.00
72061;BME280;59925;52.136;5.420;2023-11-21T09:58:14;101815.88;;;9.53;100.00
72061;BME280;59925;52.136;5.420;2023-11-21T10:00:43;101817.28;;;9.56;100.00
72061;BME280;59925;52.136;5.420;2023-11-21T10:03:10;101825.78;;;9.53;100.00
72061;BME280;59925;52.136;5.420;2023-11-21T10:05:39;101834.06;;;9.51;100.00
72061;BME280;59925;52.136;5.420;2023-11-21T10:08:09;101831.88;;;9.48;100.00
72061;BME280;59925;52.136;5.420;2023-11-21T10:10:37;101824.31;;;9.45;100.00
72061;BME280;59925;52.136;5.420;2023-11-21T10:13:06;101836.63;;;9.46;100.00
72061;BME280;59925;52.136;5.420;2023-11-21T10:15:34;101831.53;;;9.44;100.00
72061;BME280;59925;52.136;5.420;2023-11-21T10:18:06;101842.25;;;9.44;100.00
72061;BME280;59925;52.136;5.420;2023-11-21T10:20:33;101844.41;;;9.47;100.00
72061;BME280;59925;52.136;5.420;2023-11-21T10:23:01;101850.56;;;9.60;100.00
72061;BME280;59925;52.136;5.420;2023-11-21T10:25:34;101854.25;;;9.71;100.00
72061;BME280;59925;52.136;5.420;2023-11-21T10:28:03;101856.47;;;9.74;100.00
72061;BME280;59925;52.136;5.420;2023-11-21T10:30:34;101867.50;;;9.77;100.00
72061;BME280;59925;52.136;5.420;2023-11-21T10:33:05;101864.59;;;9.79;100.00
72061;BME280;59925;52.136;5.420;2023-11-21T10:35:48;101874.63;;;9.72;100.00
72061;BME280;59925;52.136;5.420;2023-11-21T10:38:21;101875.81;;;9.64;100.00
72061;BME280;59925;52.136;5.420;2023-11-21T10:40:50;101873.25;;;9.57;100.00
72061;BME280;59925;52.136;5.420;2023-11-21T10:43:17;101888.16;;;9.53;100.00
72061;BME280;59925;52.136;5.420;2023-11-21T10:45:47;101895.88;;;9.49;100.00
72061;BME280;59925;52.136;5.420;2023-11-21T10:48:14;101906.00;;;9.47;100.00
72061;BME280;59925;52.136;5.420;2023-11-21T10:50:43;101909.72;;;9.46;100.00
72061;BME280;59925;52.136;5.420;2023-11-21T10:53:10;101915.56;;;9.43;100.00
72061;BME280;59925;52.136;5.420;2023-11-21T10:55:38;101924.38;;;9.44;100.00
72061;BME280;59925;52.136;5.420;2023-11-21T10:58:05;101929.16;;;9.42;100.00
72061;BME280;59925;52.136;5.420;2023-11-21T11:00:33;101925.34;;;9.38;100.00
72061;BME280;59925;52.136;5.420;2023-11-21T11:03:00;101931.25;;;9.40;100.00
72061;BME280;59925;52.136;5.420;2023-11-21T11:05:29;101936.59;;;9.40;100.00
72061;BME280;59925;52.136;5.420;2023-11-21T11:08:01;101933.00;;;9.46;100.00
72061;BME280;59925;52.136;5.420;2023-11-21T11:10:29;101924.50;;;9.49;100.00
72061;BME280;59925;52.136;5.420;2023-11-21T11:12:56;101927.19;;;9.49;100.00
72061;BME280;59925;52.136;5.420;2023-11-21T11:15:25;101927.41;;;9.47;100.00
72061;BME280;59925;52.136;5.420;2023-11-21T11:17:53;101928.22;;;9.48;100.00
72061;BME280;59925;52.136;5.420;2023-11-21T11:20:33;101929.03;;;9.48;100.00
72061;BME280;59925;52.136;5.420;2023-11-21T11:34:59;101939.28;;;9.51;100.00
72061;BME280;59925;52.136;5.420;2023-11-21T11:37:28;101944.16;;;9.55;100.00
72061;BME280;59925;52.136;5.420;2023-11-21T11:39:56;101944.03;;;9.61;100.00
72061;BME280;59925;52.136;5.420;2023-11-21T11:42:23;101944.97;;;9.67;100.00
72061;BME280;59925;52.136;5.420;2023-11-21T11:44:51;101949.25;;;9.68;100.00
72061;BME280;59925;52.136;5.420;2023-11-21T11:47:26;101944.72;;;9.69;100.00
72061;BME280;59925;52.136;5.420;2023-11-21T11:50:08;101953.56;;;9.69;100.00
72061;BME280;59925;52.136;5.420;2023-11-21T11:52:45;101965.34;;;9.68;100.00
72061;BME280;59925;52.136;5.420;2023-11-21T11:55:17;101960.56;;;9.70;100.00
72061;BME280;59925;52.136;5.420;2023-11-21T11:57:48;101966.50;;;9.72;100.00
72061;BME280;59925;52.136;5.420;2023-11-21T12:00:22;101971.03;;;9.72;100.00
72061;BME280;59925;52.136;5.420;2023-11-21T12:02:55;101974.75;;;9.71;100.00
72061;BME280;59925;52.136;5.420;2023-11-21T12:05:26;101976.25;;;9.66;100.00
72061;BME280;59925;52.136;5.420;2023-11-21T12:08:01;101983.50;;;9.66;100.00
72061;BME280;59925;52.136;5.420;2023-11-21T12:10:30;101983.03;;;9.57;100.00
72061;BME280;59925;52.136;5.420;2023-11-21T12:12:58;101992.69;;;9.58;100.00
72061;BME280;59925;52.136;5.420;2023-11-21T12:15:25;101991.41;;;9.61;100.00
72061;BME280;59925;52.136;5.420;2023-11-21T12:17:53;101989.56;;;9.61;100.00
72061;BME280;59925;52.136;5.420;2023-11-21T12:20:21;101995.94;;;9.60;100.00
72061;BME280;59925;52.136;5.420;2023-11-21T12:22:49;101992.69;;;9.58;100.00
72061;BME280;59925;52.136;5.420;2023-11-21T12:25:18;101995.38;;;9.58;100.00
72061;BME280;59925;52.136;5.420;2023-11-21T12:27:46;101999.34;;;9.56;100.00
72061;BME280;59925;52.136;5.420;2023-11-21T12:30:13;102001.19;;;9.55;100.00
72061;BME280;59925;52.136;5.420;2023-11-21T12:32:40;101996.41;;;9.57;100.00
72061;BME280;59925;52.136;5.420;2023-11-21T12:35:10;101996.41;;;9.57;100.00
72061;BME280;59925;52.136;5.420;2023-11-21T12:37:40;102000.72;;;9.58;100.00
72061;BME280;59925;52.136;5.420;2023-11-21T12:40:09;101998.28;;;9.57;100.00
72061;BME280;59925;52.136;5.420;2023-11-21T12:42:42;102003.41;;;9.58;100.00
72061;BME280;59925;52.136;5.420;2023-11-21T12:45:10;102007.94;;;9.58;100.00
72061;BME280;59925;52.136;5.420;2023-11-21T12:47:44;102012.94;;;9.54;100.00
72061;BME280;59925;52.136;5.420;2023-11-21T12:50:11;102013.19;;;9.53;100.00
72061;BME280;59925;52.136;5.420;2023-11-21T12:52:45;102017.50;;;9.54;100.00
72061;BME280;59925;52.136;5.420;2023-11-21T12:55:16;102018.78;;;9.51;100.00
72061;BME280;59925;52.136;5.420;2023-11-21T12:57:44;102025.75;;;9.52;100.00
72061;BME280;59925;52.136;5.420;2023-11-21T13:00:12;102028.44;;;9.52;100.00
72061;BME280;59925;52.136;5.420;2023-11-21T13:02:51;102041.34;;;9.55;100.00
72061;BME280;59925;52.136;5.420;2023-11-21T13:05:33;102039.13;;;9.64;100.00
72061;BME280;59925;52.136;5.420;2023-11-21T13:08:02;102036.59;;;9.69;100.00